Time;durP1;ratioP1;P1;durP2;ratioP2;P2;SDS_P1;SDS_P2;PMS_P1;PMS_P2;Temp;Humidity;BMP_temperature;BMP_pressure;BME280_temperature;BME280_humidity;BME280_pressure;Samples;Min_cycle;Max_cycle;Signal;HPM_P1;HPM_P2
2022/11/04 00:01:24;;;;;;;24.08;14.65;;;10.80;99.90;;;;;;5208251;28;20024;-76
2022/11/04 00:03:57;;;;;;;28.38;15.85;;;10.80;99.90;;;;;;5208970;28;20033;-76
2022/11/04 00:06:31;;;;;;;28.90;16.30;;;10.90;99.90;;;;;;5201587;28;20832;-76
2022/11/04 00:09:09;;;;;;;28.08;14.77;;;10.80;99.90;;;;;;5207935;28;20047;-76
2022/11/04 00:14:31;;;;;;;27.80;16.35;;;10.80;99.90;;;;;;5209101;28;20035;-76
2022/11/04 00:17:20;;;;;;;25.48;14.88;;;10.90;99.90;;;;;;5221281;28;20028;-76
2022/11/04 00:28:44;;;;;;;26.05;14.88;;;10.90;99.90;;;;;;5206781;28;20025;-76
2022/11/04 00:34:05;;;;;;;26.50;15.43;;;11.00;99.90;;;;;;5207903;28;20299;-76
2022/11/04 00:36:36;;;;;;;28.77;14.93;;;11.00;99.90;;;;;;5188967;28;20044;-76
2022/11/04 00:39:09;;;;;;;23.15;14.77;;;11.10;99.90;;;;;;5209113;28;20053;-76
2022/11/04 00:41:45;;;;;;;25.50;15.20;;;11.10;99.90;;;;;;5211047;28;20108;-76
2022/11/04 00:44:22;;;;;;;26.63;16.38;;;11.00;99.90;;;;;;5211066;28;20211;-76
2022/11/04 00:46:55;;;;;;;26.70;15.35;;;10.90;99.90;;;;;;5196789;28;20534;-76
2022/11/04 00:49:30;;;;;;;27.05;16.73;;;10.80;99.90;;;;;;5194728;28;20033;-75
2022/11/04 00:52:02;;;;;;;26.58;15.02;;;10.70;99.90;;;;;;5195310;28;20041;-76
2022/11/04 00:54:33;;;;;;;29.35;16.13;;;10.60;99.90;;;;;;5196533;28;20021;-76
2022/11/04 00:57:07;;;;;;;27.33;16.30;;;10.60;99.90;;;;;;5213321;28;20029;-75
2022/11/04 00:59:41;;;;;;;28.52;17.13;;;10.40;99.90;;;;;;5211141;28;20040;-75
2022/11/04 01:02:12;;;;;;;28.75;17.20;;;10.40;99.90;;;;;;5209906;28;20041;-75
2022/11/04 01:04:49;;;;;;;29.40;17.58;;;10.30;99.90;;;;;;5183121;28;20054;-75
2022/11/04 01:07:20;;;;;;;28.75;17.20;;;10.20;99.90;;;;;;5175031;28;20216;-75
2022/11/04 01:09:54;;;;;;;41.35;20.08;;;10.20;99.90;;;;;;5203007;28;20049;-76
2022/11/04 01:12:28;;;;;;;32.90;19.35;;;10.10;99.90;;;;;;5172744;28;20167;-75
2022/11/04 01:14:59;;;;;;;34.72;20.13;;;10.10;99.90;;;;;;5211476;28;20032;-75
2022/11/04 01:17:30;;;;;;;39.90;19.27;;;10.00;99.90;;;;;;5211103;28;20030;-75
2022/11/04 01:20:02;;;;;;;35.17;20.15;;;10.00;99.90;;;;;;5211330;28;20045;-75
2022/11/04 01:22:33;;;;;;;37.30;21.02;;;9.90;99.90;;;;;;5209255;28;20021;-76
2022/11/04 01:25:08;;;;;;;38.65;21.35;;;9.90;99.90;;;;;;5227985;28;20036;-75
2022/11/04 01:27:39;;;;;;;35.15;19.65;;;9.80;99.90;;;;;;5225752;28;20022;-76
2022/11/04 01:30:11;;;;;;;36.15;21.08;;;9.80;99.90;;;;;;5192870;28;20033;-75
2022/11/04 01:32:44;;;;;;;37.15;20.80;;;9.80;99.90;;;;;;5210801;28;20033;-75
2022/11/04 01:35:15;;;;;;;34.33;19.63;;;9.70;99.90;;;;;;5202785;28;20176;-75
2022/11/04 01:37:49;;;;;;;37.83;22.20;;;9.70;99.90;;;;;;5214506;28;20037;-75
2022/11/04 01:40:20;;;;;;;36.20;21.33;;;9.70;99.90;;;;;;5224963;28;20037;-75
2022/11/04 01:42:54;;;;;;;37.75;22.40;;;9.70;99.90;;;;;;5202353;28;20041;-74
2022/11/04 01:45:32;;;;;;;42.45;23.15;;;9.60;99.90;;;;;;5218699;28;20034;-75
2022/11/04 01:48:23;;;;;;;36.70;22.40;;;9.60;99.90;;;;;;5202321;28;20025;-74
2022/11/04 01:50:55;;;;;;;41.05;22.83;;;9.60;99.90;;;;;;5200347;28;20037;-74
2022/11/04 01:53:31;;;;;;;42.10;22.92;;;9.60;99.90;;;;;;5197420;28;20047;-75
2022/11/04 01:56:11;;;;;;;36.85;22.25;;;9.70;99.90;;;;;;5212374;28;20047;-75
2022/11/04 01:58:52;;;;;;;40.03;21.80;;;9.70;99.90;;;;;;5211263;28;20057;-75
2022/11/04 02:01:24;;;;;;;36.40;21.13;;;9.70;99.90;;;;;;5210559;28;20039;-75
2022/11/04 02:04:24;;;;;;;38.20;22.00;;;9.80;99.90;;;;;;5211127;28;20030;-75
2022/11/04 02:07:08;;;;;;;39.13;21.40;;;9.80;99.90;;;;;;5184946;28;20049;-74
2022/11/04 02:09:42;;;;;;;39.65;21.08;;;9.80;99.90;;;;;;5207453;28;20036;-75
2022/11/04 02:15:04;;;;;;;45.08;23.00;;;9.90;99.90;;;;;;5205825;28;20517;-75
2022/11/04 02:18:00;;;;;;;40.13;21.25;;;9.90;99.90;;;;;;5211083;28;20025;-75
2022/11/04 02:20:46;;;;;;;40.38;21.77;;;10.00;99.90;;;;;;5216804;28;20476;-75
2022/11/04 02:24:04;;;;;;;38.08;21.45;;;10.00;99.90;;;;;;5176899;28;20060;-75
2022/11/04 02:26:56;;;;;;;41.70;23.77;;;10.10;99.90;;;;;;5166251;28;20030;-75
2022/11/04 02:30:03;;;;;;;39.25;22.67;;;10.10;99.90;;;;;;5166284;28;20053;-76
2022/11/04 02:32:56;;;;;;;37.05;20.92;;;10.00;99.90;;;;;;5147667;28;20053;-76
2022/11/04 02:35:32;;;;;;;38.10;20.30;;;10.10;99.90;;;;;;5147360;28;20042;-76
2022/11/04 02:38:46;;;;;;;36.15;19.48;;;10.20;99.90;;;;;;5167102;28;20046;-76
2022/11/04 02:41:26;;;;;;;33.83;19.92;;;10.30;99.90;;;;;;5089042;29;20046;-76
2022/11/04 02:44:16;;;;;;;38.15;20.65;;;10.30;99.90;;;;;;5103710;29;20070;-77
2022/11/04 02:46:59;;;;;;;30.10;18.73;;;10.30;99.90;;;;;;5159981;28;20490;-76
2022/11/04 02:49:51;;;;;;;35.75;19.90;;;10.30;99.90;;;;;;5148749;28;20045;-77
2022/11/04 02:52:38;;;;;;;36.25;20.33;;;10.40;99.90;;;;;;5165153;28;20037;-76
2022/11/04 02:55:15;;;;;;;33.67;20.27;;;10.40;99.90;;;;;;5159020;28;20057;-76
2022/11/04 02:57:49;;;;;;;37.20;19.85;;;10.50;99.90;;;;;;5194781;28;20029;-76
2022/11/04 03:00:20;;;;;;;37.30;21.17;;;10.50;99.90;;;;;;5206356;28;20021;-77
2022/11/04 03:03:17;;;;;;;30.80;19.80;;;10.50;99.90;;;;;;5193875;28;20033;-74
2022/11/04 03:06:15;;;;;;;36.38;20.38;;;10.50;99.90;;;;;;5198812;28;20105;-75
2022/11/04 03:09:09;;;;;;;28.10;18.05;;;10.60;99.90;;;;;;5209117;28;20055;-75
2022/11/04 03:12:12;;;;;;;32.38;20.08;;;10.60;99.90;;;;;;5194238;28;20033;-76
2022/11/04 03:15:16;;;;;;;34.47;19.92;;;10.60;99.90;;;;;;5204968;28;20025;-76
2022/11/04 03:18:29;;;;;;;34.30;19.33;;;10.60;99.90;;;;;;5194854;28;20035;-74
2022/11/04 03:21:30;;;;;;;33.20;18.20;;;10.60;99.90;;;;;;5207835;28;20044;-75
2022/11/04 03:24:22;;;;;;;33.67;20.00;;;10.60;99.90;;;;;;5211138;28;20021;-75
2022/11/04 03:27:40;;;;;;;35.28;19.23;;;10.60;99.90;;;;;;5190463;28;20029;-74
2022/11/04 03:30:43;;;;;;;32.97;19.67;;;10.60;99.90;;;;;;5193942;28;20025;-74
2022/11/04 03:33:35;;;;;;;32.78;19.15;;;10.60;99.90;;;;;;5188392;28;20036;-77
2022/11/04 03:36:29;;;;;;;33.80;19.45;;;10.60;99.90;;;;;;5189113;28;20291;-75
2022/11/04 03:39:20;;;;;;;36.97;19.67;;;10.60;99.90;;;;;;5188092;28;20038;-75
2022/11/04 03:42:19;;;;;;;34.58;19.98;;;10.60;99.90;;;;;;5185037;28;20033;-75
2022/11/04 03:45:12;;;;;;;37.63;19.92;;;10.60;99.90;;;;;;5210849;28;20044;-76
2022/11/04 03:48:04;;;;;;;37.67;20.90;;;10.70;99.90;;;;;;5208631;28;20057;-76
2022/11/04 03:51:01;;;;;;;32.05;18.90;;;10.70;99.90;;;;;;5203797;28;20044;-76
2022/11/04 03:53:53;;;;;;;36.22;20.60;;;10.60;99.90;;;;;;5192075;28;20029;-75
2022/11/04 03:57:14;;;;;;;37.53;20.35;;;10.60;99.90;;;;;;5192673;28;20029;-75
2022/11/04 04:00:11;;;;;;;37.00;21.45;;;10.70;99.90;;;;;;5189105;28;20044;-76
2022/11/04 04:03:17;;;;;;;36.90;21.40;;;10.70;99.90;;;;;;5198159;28;20030;-76
2022/11/04 04:06:16;;;;;;;39.50;20.63;;;10.70;99.90;;;;;;5182994;28;20057;-76
2022/11/04 04:09:12;;;;;;;42.45;21.13;;;10.70;99.90;;;;;;5205417;28;20032;-76
2022/11/04 04:12:09;;;;;;;;;;;10.70;99.90;;;;;;5185660;28;20030;-75
2022/11/04 04:15:19;;;;;;;38.58;21.17;;;10.70;99.90;;;;;;5208564;28;19924;-77
2022/11/04 04:18:14;;;;;;;36.88;21.30;;;10.70;99.90;;;;;;5197710;28;20234;-76
2022/11/04 04:21:10;;;;;;;41.35;22.90;;;10.70;99.90;;;;;;5191279;28;20044;-75
2022/11/04 04:27:30;;;;;;;37.47;21.80;;;10.70;99.90;;;;;;5207838;28;20017;-76
2022/11/04 04:30:21;;;;;;;39.53;22.13;;;10.70;99.90;;;;;;5208200;28;20032;-75
2022/11/04 04:33:17;;;;;;;40.42;22.02;;;10.70;99.90;;;;;;5185706;28;20037;-76
2022/11/04 04:36:08;;;;;;;;;;;10.70;99.90;;;;;;5195016;28;20037;-75
2022/11/04 04:45:37;;;;;;;45.10;23.33;;;10.70;99.90;;;;;;5186310;28;20030;-76
2022/11/04 04:48:28;;;;;;;34.47;19.52;;;10.70;99.90;;;;;;5192502;28;20048;-76
2022/11/04 04:51:20;;;;;;;41.00;23.02;;;10.60;99.90;;;;;;5184535;28;20033;-75
2022/11/04 04:54:13;;;;;;;43.85;23.38;;;10.60;99.90;;;;;;5186717;28;20030;-76
2022/11/04 04:57:04;;;;;;;41.63;22.58;;;10.60;99.90;;;;;;5186618;28;20346;-76
2022/11/04 04:59:56;;;;;;;45.28;23.85;;;10.60;99.90;;;;;;5201922;28;20026;-75
2022/11/04 05:02:48;;;;;;;47.22;24.73;;;10.50;99.90;;;;;;5200445;28;20048;-75
2022/11/04 05:05:47;;;;;;;42.88;23.48;;;10.50;99.90;;;;;;5188439;28;20295;-75
2022/11/04 05:08:39;;;;;;;40.42;24.25;;;10.50;99.90;;;;;;5208204;28;20031;-76
2022/11/04 05:11:33;;;;;;;42.40;23.42;;;10.60;99.90;;;;;;5179597;28;20038;-76
2022/11/04 05:14:24;;;;;;;42.85;23.38;;;10.50;99.90;;;;;;5188239;28;20039;-77
2022/11/04 05:17:16;;;;;;;42.05;23.58;;;10.50;99.90;;;;;;5185967;28;20215;-76
2022/11/04 05:20:08;;;;;;;50.50;24.42;;;10.60;99.90;;;;;;5205079;28;20036;-77
2022/11/04 05:23:00;;;;;;;51.47;25.80;;;10.60;99.90;;;;;;5203394;28;20521;-76
2022/11/04 05:25:51;;;;;;;54.53;26.75;;;10.60;99.90;;;;;;5200224;28;20017;-76
2022/11/04 05:28:43;;;;;;;45.15;24.05;;;10.60;99.90;;;;;;5179740;28;20052;-76
2022/11/04 05:31:34;;;;;;;49.22;25.52;;;10.60;99.90;;;;;;5196305;28;20033;-76
2022/11/04 05:34:26;;;;;;;51.40;25.58;;;10.60;99.90;;;;;;5211345;28;20036;-76
2022/11/04 05:37:17;;;;;;;45.80;25.02;;;10.70;99.90;;;;;;5200486;28;20040;-75
2022/11/04 05:40:09;;;;;;;47.47;24.80;;;10.70;99.90;;;;;;5213977;28;20030;-75
2022/11/04 05:43:01;;;;;;;47.50;25.90;;;10.70;99.90;;;;;;5194808;28;20319;-76
2022/11/04 05:45:56;;;;;;;43.85;24.77;;;10.80;99.90;;;;;;5195998;28;20033;-77
2022/11/04 05:48:48;;;;;;;49.22;25.60;;;10.80;99.90;;;;;;5204282;28;20030;-76
2022/11/04 05:51:42;;;;;;;58.20;27.92;;;10.80;99.90;;;;;;5217073;28;20041;-76
2022/11/04 05:54:35;;;;;;;49.45;26.67;;;10.70;99.90;;;;;;5211251;28;20226;-76
2022/11/04 05:57:27;;;;;;;55.25;26.30;;;10.70;99.90;;;;;;5211904;28;20033;-76
2022/11/04 06:00:21;;;;;;;60.05;26.80;;;10.60;99.90;;;;;;5195417;28;20029;-76
2022/11/04 06:03:12;;;;;;;1417.93;643.83;;;10.60;99.90;;;;;;5182569;28;20041;-76
2022/11/04 06:06:04;;;;;;;580.17;221.68;;;10.70;99.90;;;;;;5196997;28;20226;-76
2022/11/04 06:08:56;;;;;;;71.20;36.13;;;10.80;99.90;;;;;;5230990;28;20025;-76
2022/11/04 06:11:47;;;;;;;67.72;34.95;;;10.70;99.90;;;;;;5199334;28;20029;-75
2022/11/04 06:14:44;;;;;;;293.27;129.02;;;10.70;99.90;;;;;;5208896;28;20350;-76
2022/11/04 06:17:35;;;;;;;110.28;48.25;;;10.70;99.90;;;;;;5208686;28;20033;-76
2022/11/04 06:20:29;;;;;;;80.05;36.47;;;10.70;99.90;;;;;;5208803;28;20041;-75
2022/11/04 06:23:26;;;;;;;64.18;31.70;;;10.80;99.90;;;;;;5208213;28;20043;-76
2022/11/04 06:26:20;;;;;;;64.38;29.95;;;10.80;99.90;;;;;;5189544;28;20021;-76
2022/11/04 06:29:12;;;;;;;83.70;37.33;;;10.90;99.90;;;;;;5175582;28;20030;-74
2022/11/04 06:32:03;;;;;;;76.82;33.92;;;10.80;99.90;;;;;;5187514;28;20572;-74
2022/11/04 06:34:55;;;;;;;65.13;30.98;;;10.90;99.90;;;;;;5195833;28;20041;-73
2022/11/04 06:37:47;;;;;;;64.53;28.75;;;10.70;99.90;;;;;;5195540;28;20039;-76
2022/11/04 06:40:38;;;;;;;66.95;30.75;;;10.70;99.90;;;;;;5207950;28;20064;-76
2022/11/04 06:43:32;;;;;;;71.32;31.20;;;10.60;99.90;;;;;;5189375;28;20025;-75
2022/11/04 06:46:38;;;;;;;55.83;28.33;;;10.70;99.90;;;;;;5209446;28;20033;-74
2022/11/04 06:49:30;;;;;;;59.72;29.65;;;10.70;99.90;;;;;;5208192;28;20032;-74
2022/11/04 06:52:21;;;;;;;202.55;91.00;;;10.70;99.90;;;;;;5211540;28;20037;-74
2022/11/04 06:55:13;;;;;;;83.90;39.95;;;10.70;99.90;;;;;;5194935;28;20029;-75
2022/11/04 06:58:04;;;;;;;82.43;39.03;;;10.70;99.90;;;;;;5188140;28;20021;-75
2022/11/04 07:00:57;;;;;;;60.88;30.17;;;10.60;99.90;;;;;;5190159;28;20048;-75
2022/11/04 07:03:53;;;;;;;109.60;48.47;;;10.70;99.90;;;;;;5207540;28;20041;-76
2022/11/04 07:06:46;;;;;;;96.70;41.55;;;10.70;99.90;;;;;;5183090;28;20630;-75
2022/11/04 07:09:38;;;;;;;57.55;28.20;;;10.70;99.90;;;;;;5209311;28;20067;-75
2022/11/04 07:12:29;;;;;;;63.60;30.50;;;10.80;99.90;;;;;;5194548;28;20028;-74
2022/11/04 07:15:22;;;;;;;62.28;30.60;;;10.80;99.90;;;;;;5205546;28;20355;-75
2022/11/04 07:18:13;;;;;;;69.20;29.42;;;10.80;99.90;;;;;;5184747;28;20037;-74
2022/11/04 07:21:05;;;;;;;62.30;31.50;;;10.70;99.90;;;;;;5209000;28;20029;-74
2022/11/04 07:24:02;;;;;;;55.75;28.35;;;10.80;99.90;;;;;;5207515;28;20033;-75
2022/11/04 07:26:55;;;;;;;1169.88;810.75;;;10.80;99.90;;;;;;5204830;28;20025;-74
2022/11/04 07:29:46;;;;;;;1857.10;809.92;;;10.90;99.90;;;;;;5200975;28;20025;-74
2022/11/04 07:32:37;;;;;;;269.35;136.82;;;10.90;99.90;;;;;;5206823;28;20027;-76
2022/11/04 07:35:29;;;;;;;121.15;65.68;;;11.00;99.90;;;;;;5208686;28;20023;-75
2022/11/04 07:38:21;;;;;;;344.05;140.32;;;11.10;99.90;;;;;;5196339;28;20326;-73
2022/11/04 07:41:13;;;;;;;201.38;82.22;;;11.00;99.90;;;;;;5180745;28;20033;-73
2022/11/04 07:44:04;;;;;;;1999.90;911.33;;;10.90;99.90;;;;;;5203199;28;20503;-74
2022/11/04 07:47:00;;;;;;;1082.88;491.25;;;10.90;99.90;;;;;;5206993;28;20211;-75
2022/11/04 07:49:51;;;;;;;255.25;136.88;;;10.90;99.90;;;;;;5206946;28;20031;-74
2022/11/04 07:52:44;;;;;;;380.83;196.55;;;10.90;99.90;;;;;;5208265;28;20029;-74
2022/11/04 07:55:38;;;;;;;1151.07;650.88;;;11.00;99.90;;;;;;5209325;28;20029;-73
2022/11/04 07:58:29;;;;;;;948.10;573.83;;;11.10;99.90;;;;;;5206267;28;20040;-75
2022/11/04 08:01:24;;;;;;;75.18;39.25;;;11.20;99.90;;;;;;5208791;28;20032;-75
2022/11/04 08:04:15;;;;;;;148.98;80.07;;;11.20;99.90;;;;;;5198146;28;20026;-73
2022/11/04 08:07:10;;;;;;;437.90;284.75;;;11.30;99.90;;;;;;5203274;28;20033;-75
2022/11/04 08:10:02;;;;;;;1133.97;714.10;;;11.30;99.90;;;;;;5194405;28;20024;-74
2022/11/04 08:12:53;;;;;;;500.35;340.80;;;11.40;99.90;;;;;;5206630;28;20043;-75
2022/11/04 08:15:47;;;;;;;275.38;167.73;;;11.40;99.90;;;;;;5191990;28;20040;-75
2022/11/04 08:18:41;;;;;;;190.63;117.95;;;11.40;99.90;;;;;;5200209;28;20108;-74
2022/11/04 08:21:38;;;;;;;355.27;239.98;;;11.40;99.90;;;;;;5193721;28;20044;-73
2022/11/04 08:24:29;;;;;;;221.43;133.50;;;11.50;99.90;;;;;;5194708;28;20522;-74
2022/11/04 08:27:22;;;;;;;315.77;203.77;;;11.30;99.90;;;;;;5205939;28;20206;-75
2022/11/04 08:30:16;;;;;;;131.68;74.13;;;11.20;99.90;;;;;;5185384;28;20030;-73
2022/11/04 08:33:08;;;;;;;211.63;120.30;;;11.20;99.90;;;;;;5181992;28;20218;-74
2022/11/04 08:36:09;;;;;;;80.30;43.95;;;11.30;99.90;;;;;;5184338;28;20040;-73
2022/11/04 08:39:06;;;;;;;567.92;452.50;;;11.20;99.90;;;;;;5185607;28;20046;-73
2022/11/04 08:41:58;;;;;;;531.35;322.08;;;11.30;99.90;;;;;;5185132;28;20331;-72
2022/11/04 08:44:57;;;;;;;412.05;302.80;;;11.30;99.90;;;;;;5204763;28;20043;-72
2022/11/04 08:47:49;;;;;;;99.20;64.72;;;11.30;99.90;;;;;;5172531;28;20500;-76
2022/11/04 08:50:43;;;;;;;68.90;30.48;;;11.20;99.90;;;;;;5186335;28;20033;-74
2022/11/04 08:53:34;;;;;;;77.82;43.38;;;11.30;99.90;;;;;;5187060;28;20327;-73
2022/11/04 08:56:29;;;;;;;71.38;33.67;;;11.20;99.90;;;;;;5205645;28;20041;-74
2022/11/04 08:59:20;;;;;;;84.53;47.22;;;11.00;99.90;;;;;;5193015;28;20032;-74
2022/11/04 09:02:17;;;;;;;67.90;36.60;;;11.00;99.90;;;;;;5200648;28;20075;-75
2022/11/04 09:05:08;;;;;;;84.53;45.97;;;11.00;99.90;;;;;;5176085;28;20045;-74
2022/11/04 09:08:00;;;;;;;79.63;39.38;;;10.90;99.90;;;;;;5209719;28;20039;-75
2022/11/04 09:10:52;;;;;;;100.60;56.92;;;10.80;99.90;;;;;;5180316;28;20057;-74
2022/11/04 09:13:45;;;;;;;69.20;32.03;;;10.80;99.90;;;;;;5188738;28;20030;-75
2022/11/04 09:16:38;;;;;;;60.95;29.00;;;10.80;99.90;;;;;;5187789;28;20033;-74
2022/11/04 09:19:32;;;;;;;72.90;33.30;;;10.80;99.90;;;;;;5178910;28;20029;-74
2022/11/04 09:22:25;;;;;;;63.17;28.20;;;10.60;99.90;;;;;;5180794;28;20033;-77
2022/11/04 09:25:19;;;;;;;73.55;36.90;;;10.70;99.90;;;;;;5189383;28;20026;-75
2022/11/04 09:28:10;;;;;;;69.70;29.50;;;10.70;99.90;;;;;;5181783;28;20038;-75
2022/11/04 09:31:16;;;;;;;72.43;34.63;;;10.80;99.90;;;;;;5190866;28;20335;-75
2022/11/04 09:34:07;;;;;;;61.50;25.95;;;10.80;99.90;;;;;;5198521;28;20375;-75
2022/11/04 09:36:59;;;;;;;71.82;35.65;;;10.80;99.90;;;;;;5210196;28;20030;-74
2022/11/04 09:39:50;;;;;;;67.50;29.70;;;10.70;99.90;;;;;;5168989;28;20038;-74
2022/11/04 09:43:14;;;;;;;63.80;29.17;;;10.50;99.90;;;;;;5190166;28;20036;-74
2022/11/04 09:46:10;;;;;;;60.55;25.98;;;10.50;99.90;;;;;;5189751;28;20010;-74
2022/11/04 09:49:04;;;;;;;81.95;47.28;;;10.40;99.90;;;;;;5190994;28;20365;-76
2022/11/04 09:51:57;;;;;;;97.05;59.25;;;10.60;99.90;;;;;;5192058;28;20026;-74
2022/11/04 09:55:16;;;;;;;133.52;83.10;;;10.80;99.90;;;;;;5188274;28;20034;-73
2022/11/04 09:58:12;;;;;;;93.53;48.85;;;10.90;99.90;;;;;;5188222;28;20037;-74
2022/11/04 10:01:16;;;;;;;103.40;65.43;;;10.80;99.90;;;;;;5186958;28;20042;-74
2022/11/04 10:04:27;;;;;;;63.47;24.10;;;10.80;99.90;;;;;;5188546;28;20361;-75
2022/11/04 10:07:32;;;;;;;57.63;24.77;;;10.90;99.90;;;;;;5138112;28;20049;-75
2022/11/04 10:10:35;;;;;;;76.43;38.58;;;10.90;99.90;;;;;;5188374;28;20056;-75
2022/11/04 10:14:07;;;;;;;361.90;217.15;;;10.80;99.90;;;;;;5175178;28;20029;-75
2022/11/04 10:17:17;;;;;;;188.55;135.32;;;10.90;99.90;;;;;;5154509;28;20026;-75
2022/11/04 10:20:24;;;;;;;351.50;220.15;;;10.80;99.90;;;;;;5177867;28;20109;-75
2022/11/04 10:23:32;;;;;;;791.30;404.83;;;10.80;99.90;;;;;;5184198;28;20041;-75
2022/11/04 10:26:35;;;;;;;332.75;173.07;;;10.80;99.90;;;;;;5168887;28;20030;-76
2022/11/04 10:29:37;;;;;;;260.15;161.50;;;10.80;99.90;;;;;;5185403;28;20034;-76
2022/11/04 10:32:37;;;;;;;90.82;47.38;;;10.90;99.90;;;;;;5187895;28;20044;-76
2022/11/04 10:36:02;;;;;;;336.83;205.25;;;11.00;99.90;;;;;;5184270;28;20342;-75
2022/11/04 10:38:57;;;;;;;50.30;21.67;;;11.10;99.90;;;;;;5155328;28;20045;-75
2022/11/04 10:41:49;;;;;;;33.88;16.95;;;11.20;99.90;;;;;;5189062;28;20026;-75
2022/11/04 10:44:45;;;;;;;35.30;22.35;;;11.30;99.90;;;;;;5169314;28;20066;-76
2022/11/04 10:47:55;;;;;;;28.92;16.23;;;11.30;99.90;;;;;;5169278;28;20037;-75
2022/11/04 10:50:54;;;;;;;38.80;18.20;;;11.40;99.90;;;;;;5177698;28;20029;-76
2022/11/04 10:53:45;;;;;;;29.75;16.55;;;11.40;99.90;;;;;;5174512;28;20022;-75
2022/11/04 10:56:57;;;;;;;32.38;17.10;;;11.40;99.90;;;;;;5187524;28;20215;-75
2022/11/04 10:59:57;;;;;;;64.68;19.65;;;11.40;99.90;;;;;;5188149;28;20036;-77
2022/11/04 11:02:51;;;;;;;30.70;15.60;;;11.50;99.90;;;;;;5200625;28;20033;-77
2022/11/04 11:05:44;;;;;;;35.22;23.02;;;11.40;99.90;;;;;;5195589;28;20061;-77
2022/11/04 11:08:37;;;;;;;28.45;16.50;;;11.30;99.90;;;;;;5186679;28;20057;-76
2022/11/04 11:11:40;;;;;;;26.50;14.27;;;11.30;99.90;;;;;;5207644;28;20032;-77
2022/11/04 11:14:34;;;;;;;691.22;356.20;;;11.30;99.90;;;;;;5208090;28;20043;-76
2022/11/04 11:17:31;;;;;;;93.50;68.65;;;11.40;99.90;;;;;;5193442;28;20335;-77
2022/11/04 11:20:25;;;;;;;40.05;24.25;;;11.50;99.90;;;;;;5226283;28;20027;-77
2022/11/04 11:23:35;;;;;;;27.33;16.38;;;11.60;99.90;;;;;;5214976;28;20032;-76
2022/11/04 11:26:31;;;;;;;33.88;23.75;;;11.60;99.90;;;;;;5171732;28;20014;-77
2022/11/04 11:29:25;;;;;;;51.53;37.15;;;11.60;99.90;;;;;;5209293;28;20218;-77
2022/11/04 11:32:32;;;;;;;29.33;15.67;;;11.60;99.90;;;;;;5201373;28;20025;-74
2022/11/04 11:35:46;;;;;;;53.10;37.85;;;11.60;99.90;;;;;;5196812;28;20269;-77
2022/11/04 11:38:57;;;;;;;28.88;17.20;;;11.60;99.90;;;;;;5205202;28;20032;-77
2022/11/04 11:42:01;;;;;;;50.92;35.28;;;11.50;99.90;;;;;;5214358;28;20023;-77
2022/11/04 11:44:55;;;;;;;19.25;12.23;;;11.50;99.90;;;;;;5220784;28;20031;-77
2022/11/04 11:47:53;;;;;;;17.70;10.63;;;11.70;99.90;;;;;;5219372;28;20029;-78
2022/11/04 11:50:57;;;;;;;17.23;10.68;;;11.70;99.90;;;;;;5187674;28;20073;-76
2022/11/04 11:54:28;;;;;;;18.95;11.18;;;11.70;99.90;;;;;;5207246;28;20047;-75
2022/11/04 11:57:51;;;;;;;16.58;9.25;;;11.80;99.90;;;;;;5206433;28;20510;-78
2022/11/04 12:00:54;;;;;;;18.60;10.77;;;11.70;99.90;;;;;;5205282;28;20041;-77
2022/11/04 12:03:52;;;;;;;18.85;10.68;;;11.70;99.90;;;;;;5204603;28;20039;-78
2022/11/04 12:07:10;;;;;;;23.00;10.18;;;11.90;99.90;;;;;;5167509;28;20045;-76
2022/11/04 12:10:14;;;;;;;16.55;10.07;;;12.00;99.90;;;;;;5112829;28;20047;-75
2022/11/04 12:13:13;;;;;;;15.45;8.90;;;12.00;99.90;;;;;;5130007;28;20038;-78
2022/11/04 12:16:13;;;;;;;49.20;40.15;;;11.90;99.90;;;;;;5137515;28;20022;-77
2022/11/04 12:19:42;;;;;;;26.50;23.00;;;12.00;99.90;;;;;;5153600;28;20030;-77
2022/11/04 12:22:58;;;;;;;14.60;9.38;;;12.00;99.90;;;;;;5086031;29;20534;-77
2022/11/04 12:26:19;;;;;;;28.73;20.30;;;11.90;99.90;;;;;;5086479;29;20058;-77
2022/11/04 12:29:28;;;;;;;151.32;105.22;;;11.90;99.90;;;;;;5086068;29;20042;-77
2022/11/04 12:32:35;;;;;;;194.35;129.38;;;11.80;99.90;;;;;;5095655;29;20034;-77
2022/11/04 12:36:03;;;;;;;40.80;26.77;;;11.80;99.90;;;;;;5089524;29;20036;-77
2022/11/04 12:39:10;;;;;;;251.32;170.82;;;11.50;99.90;;;;;;5073164;29;20054;-77
2022/11/04 12:42:26;;;;;;;425.75;291.25;;;11.20;99.90;;;;;;5089191;29;20386;-76
2022/11/04 12:45:40;;;;;;;47.88;29.88;;;11.00;99.90;;;;;;5086951;29;20109;-76
2022/11/04 12:49:07;;;;;;;209.63;119.05;;;11.10;99.90;;;;;;5129289;29;20034;-77
2022/11/04 12:52:22;;;;;;;9.88;7.53;;;11.30;99.90;;;;;;5092047;29;20043;-77
2022/11/04 12:55:41;;;;;;;146.10;65.30;;;11.20;99.90;;;;;;5095546;29;20047;-76
2022/11/04 12:59:00;;;;;;;30.70;14.52;;;11.30;99.90;;;;;;5127866;29;20045;-76
2022/11/04 13:02:01;;;;;;;4.35;3.00;;;11.10;99.90;;;;;;5135807;28;20039;-76
2022/11/04 13:04:58;;;;;;;6.13;3.95;;;11.00;99.90;;;;;;5111385;28;20043;-76
2022/11/04 13:08:08;;;;;;;3.70;2.53;;;10.80;99.90;;;;;;5101564;28;20059;-77
2022/11/04 13:11:22;;;;;;;2.92;2.40;;;10.50;99.90;;;;;;5128536;28;20045;-76
2022/11/04 13:14:28;;;;;;;1.33;1.27;;;10.50;99.90;;;;;;5136101;28;20045;-76
2022/11/04 13:17:29;;;;;;;2.05;1.15;;;10.40;99.90;;;;;;5115161;28;20308;-76
2022/11/04 13:20:33;;;;;;;1.60;1.50;;;10.40;99.90;;;;;;5107491;29;20353;-76
2022/11/04 13:23:44;;;;;;;2.15;1.05;;;10.60;99.90;;;;;;5128086;28;20041;-75
2022/11/04 13:26:36;;;;;;;1.83;1.15;;;10.50;99.90;;;;;;5125136;28;20038;-76
2022/11/04 13:29:29;;;;;;;1.83;1.40;;;10.60;99.90;;;;;;5207985;28;20029;-76
2022/11/04 13:32:32;;;;;;;1.20;1.10;;;10.40;99.90;;;;;;5208537;28;20029;-76
2022/11/04 13:35:37;;;;;;;1.52;1.35;;;10.40;99.90;;;;;;5203876;28;20220;-75
2022/11/04 13:38:39;;;;;;;1.73;1.33;;;10.50;99.90;;;;;;5200974;28;20033;-76
2022/11/04 13:41:48;;;;;;;2.95;1.30;;;10.40;99.90;;;;;;5207548;28;20337;-75
2022/11/04 13:44:44;;;;;;;1.80;1.30;;;10.20;99.90;;;;;;5200903;28;20180;-76
2022/11/04 13:47:44;;;;;;;1.35;1.10;;;10.20;99.90;;;;;;5229686;28;20219;-76
2022/11/04 13:50:40;;;;;;;1.08;0.95;;;10.10;99.90;;;;;;5211222;28;20033;-75
2022/11/04 13:53:52;;;;;;;1.10;1.10;;;9.90;99.90;;;;;;5199450;28;20029;-75
2022/11/04 13:56:46;;;;;;;0.80;0.80;;;9.90;99.90;;;;;;5210981;28;20021;-78
2022/11/04 13:59:43;;;;;;;0.80;0.80;;;9.80;99.90;;;;;;5209621;28;20025;-76
2022/11/04 14:02:48;;;;;;;2.17;1.38;;;9.70;99.90;;;;;;5205671;28;20033;-75
2022/11/04 14:05:40;;;;;;;1.10;1.00;;;9.70;99.90;;;;;;5200511;28;20365;-75
2022/11/04 14:08:34;;;;;;;1.20;1.10;;;9.70;99.90;;;;;;5207284;28;20033;-77
2022/11/04 14:11:25;;;;;;;2.23;1.93;;;9.80;99.90;;;;;;5200220;28;20029;-77
2022/11/04 14:14:21;;;;;;;16.75;14.98;;;9.60;99.90;;;;;;5216851;28;20029;-77
2022/11/04 14:17:31;;;;;;;1.38;1.20;;;9.50;99.90;;;;;;5225214;28;20027;-78
2022/11/04 14:20:30;;;;;;;263.80;115.00;;;9.30;99.90;;;;;;5207602;28;20048;-78
2022/11/04 14:23:23;;;;;;;3.55;2.10;;;9.30;99.90;;;;;;5201070;28;20037;-78
2022/11/04 14:26:40;;;;;;;1.90;1.23;;;9.00;99.90;;;;;;5211622;28;20086;-78
2022/11/04 14:29:38;;;;;;;5.15;2.30;;;8.90;99.90;;;;;;5196046;28;20033;-78
2022/11/04 14:32:36;;;;;;;2.22;1.55;;;8.70;99.90;;;;;;5189825;28;20239;-79
2022/11/04 14:35:29;;;;;;;60.95;26.98;;;8.70;99.90;;;;;;5192265;28;20026;-78
2022/11/04 14:38:31;;;;;;;8.25;4.68;;;8.60;99.90;;;;;;5192146;28;20025;-78
2022/11/04 14:41:41;;;;;;;1.85;1.70;;;8.50;99.90;;;;;;5207388;28;20040;-78
2022/11/04 14:44:42;;;;;;;6.78;3.90;;;8.40;99.90;;;;;;5201832;28;20226;-77
2022/11/04 14:47:37;;;;;;;8.93;5.20;;;8.40;99.90;;;;;;5189295;28;20026;-76
2022/11/04 14:50:33;;;;;;;1.45;1.35;;;8.30;99.90;;;;;;5204138;28;20041;-75
2022/11/04 14:53:31;;;;;;;0.50;0.50;;;8.30;99.90;;;;;;5209155;28;20033;-75
2022/11/04 14:56:23;;;;;;;1.20;1.13;;;8.20;99.90;;;;;;5208354;28;20028;-75
2022/11/04 14:59:23;;;;;;;3.55;2.92;;;8.20;99.90;;;;;;5209317;28;20037;-76
2022/11/04 15:02:19;;;;;;;1.23;0.77;;;8.10;99.90;;;;;;5217186;28;20584;-76
2022/11/04 15:05:34;;;;;;;1.33;1.02;;;8.00;99.90;;;;;;5189703;28;20076;-76
2022/11/04 15:08:33;;;;;;;1.23;1.00;;;7.90;99.90;;;;;;5184233;28;20029;-76
2022/11/04 15:14:40;;;;;;;1.13;1.00;;;7.80;99.90;;;;;;5211935;28;20021;-75
2022/11/04 15:17:35;;;;;;;0.60;0.60;;;7.70;99.90;;;;;;5209664;28;20025;-75